Webcam Meteoipassi more information Webcam Meteoipassi


Pisa torre orologio more information Pisa torre orologio


altri nostri siti meteo:

Pomeziameteo 1Sito sul meteo

Pomeziameteo DashboardSito sul meteo

Caput FrigorisSito sul meteo

BarcellonameteoSito sul meteo

MeteoipassiSito sul meteo

ViterbometeoSito sul meteo

MeteotortoretoSito sul meteo

TortoretometeolidoSito sul meteo

MeteoGonzagaSito sul meteo



Temperature massime estreme Inizio validita dal: 22-07-2019 09:00 Fino: 23-07-2019 22:59 Allerta per: Temperature massime estreme Livello: Giallo info button

Report METAR

   
LIRQ - Firenze
Dati ricevuti: Jul 22 2019 1:20 am
Sereno  
Sereno  
   Vento: Variabile 3.7 km/h
Vento: Variabile 3.7 km/h
Temperatura: 23°C
P.to Rugiada: 20°C
Umidita: 83%
Barometro: 1021 hPa
Visibilita: oltre 10 km
dettagli cloud: Sereno
LIRQ 212320Z VRB02KT CAVOK 23/20 Q1021
LIRP - Lucca
Dati ricevuti: Jul 22 2019 1:15 am
Sereno  
Sereno  
   Vento: Sud 3.7 km/h
Vento: Sud 3.7 km/h
Temperatura: 20°C
P.to Rugiada: 19°C
Umidita: 94%
Barometro: 1022 hPa
Visibilita: oltre 10 km
dettagli cloud: Sereno
LIRP 212315Z 18002KT CAVOK 20/19 Q1022 NOSIG
LIRP - Livorno
Dati ricevuti: Jul 22 2019 1:15 am
Sereno  
Sereno  
   Vento: Sud 3.7 km/h
Vento: Sud 3.7 km/h
Temperatura: 20°C
P.to Rugiada: 19°C
Umidita: 94%
Barometro: 1022 hPa
Visibilita: oltre 10 km
dettagli cloud: Sereno
LIRP 212315Z 18002KT CAVOK 20/19 Q1022 NOSIG
LIMP - Parma
Dati ricevuti: Jul 21 2019 8:50 pm
DATI Obsoleti
Sereno  
Sereno  
   Vento: Variabile 3.7 km/h
Vento: Variabile 3.7 km/h
Temperatura: 30°C
Indice di Calore: 33°C
P.to Rugiada: 21°C
Umidita: 59%
Barometro: 1018 hPa
Visibilita: oltre 10 km
dettagli cloud: Sereno
LIMP 211850Z VRB02KT CAVOK 30/21 Q1018
LIRF - Roma
Dati ricevuti: Jul 22 2019 1:20 am
Sereno  
Sereno  
   Vento: NNW 9.3 km/h
Vento: NNW 9.3 km/h
Temperatura: 21°C
P.to Rugiada: 18°C
Umidita: 83%
Barometro: 1021 hPa
Visibilita: oltre 10 km
dettagli cloud: Sereno
LIRF 212320Z 34005KT CAVOK 21/18 Q1021 NOSIG
 

Script sviluppato da  Saratoga-weather.org Adattato per il modello da  Weerstation Leuven

Potete trovare le nostre info meteo anche a:

European Weather Network

Weather Underground

AWEKAS

HAMweather, WeatherForYou, PWS Weather

Strumentazione usata:

Stazione meteo
Oregon Scientific WMR88

Programma gestore dati meteo
WVIEW

Server per i dati meteo
WDS-5

Provider
Anemos WDS-5

Oregon Scientific WMR88

WVIEW

WDS-5

Anemos WDS-5